Terminal Aerodrome Forecast
Issued by NWS Cleveland, OH

Home | Current Version | Previous Version | Graphics & Text | Print | Product List | Glossary On
Versions: 1 2 3 4 5 6 7 8 9 10 11 12 13 14 15 16 17 18 19 20 21 22
000
FTUS41 KCLE 292300
TAFCAK
TAF
KCAK 292320Z 3000/3024 24012KT 2SM -RA BR OVC005
     FM300100 28012KT 1 1/2SM -SN BR OVC005
     FM300500 30012KT 4SM -SN BR OVC007
     FM300700 30014KT P6SM OVC015
     FM301000 31014G21KT P6SM OVC015
     FM301800 32012KT P6SM SCT250=

USA.gov is the U.S. government's official web portal to all federal, state and local government web resources and services.